Pilger, Nebraska
Current Conditions -  °F | °C
As of 5:55 PM on Saturday 25 Oct 2014 (Local Time) from KLCG Reporting Station
Haze Haze  
Wind Chill: 65°   Ceiling: Unl
Heat Index: 65°   Visibility: 3mi
Dew Point: 37°   Wind: 7mph
Humidity: 35%   Direction: 70°ENE
Pressure: 30.06"   Gusts: NA
Location:  42.01°N, 97.05°W
Report Text: KLCG 252255Z AUTO 07006KT 3SM HZ CLR 19/03 A3006 RMK AO2 T01850028
Loading
Personal Weather Stations






























Interactive Weather Map
Tropical Storm Tracking
New forecast layout! Learn more

10-Day Weather Forecast

Advertisements
Track Severe Weather on mobile